Terminal Aerodrome Forecast
Issued by NWS

Home | Current Version | Previous Version | Text Only | Print | Product List | Glossary On
Versions: 1 2 3 4 5 6 7 8 9 10 11 12 13 14 15 16 17 18 19 20
000
FTUS42 KFFC 271734
TAFFTY
TAF
KFTY 271734Z 2718/2818 34012G22KT P6SM BKN035 BKN050
     FM272300 33013KT P6SM SCT040 BKN060
     FM280200 33008KT P6SM FEW060
     FM281500 35006KT P6SM SKC=

USA.gov is the U.S. government's official web portal to all federal, state and local government web resources and services.